sensor_id;sensor_type;location;lat;lon;timestamp;temperature;humidity
23237;DHT22;11787;52.018;8.570;2022-09-09T00:04:41;16.50;99.90
23237;DHT22;11787;52.018;8.570;2022-09-09T00:10:13;16.40;99.90
23237;DHT22;11787;52.018;8.570;2022-09-09T00:15:07;16.40;99.90
23237;DHT22;11787;52.018;8.570;2022-09-09T00:17:44;16.30;99.90
23237;DHT22;11787;52.018;8.570;2022-09-09T00:20:12;16.30;99.90
23237;DHT22;11787;52.018;8.570;2022-09-09T00:22:40;16.30;99.90
23237;DHT22;11787;52.018;8.570;2022-09-09T00:25:12;16.30;99.90
23237;DHT22;11787;52.018;8.570;2022-09-09T00:27:45;16.30;99.90
23237;DHT22;11787;52.018;8.570;2022-09-09T00:30:16;16.30;99.90
23237;DHT22;11787;52.018;8.570;2022-09-09T00:32:45;16.30;99.90
23237;DHT22;11787;52.018;8.570;2022-09-09T00:35:18;16.30;99.90
23237;DHT22;11787;52.018;8.570;2022-09-09T00:37:47;16.30;99.90
23237;DHT22;11787;52.018;8.570;2022-09-09T00:42:49;16.40;99.90
23237;DHT22;11787;52.018;8.570;2022-09-09T00:45:33;16.40;99.90
23237;DHT22;11787;52.018;8.570;2022-09-09T00:48:01;16.40;99.90
23237;DHT22;11787;52.018;8.570;2022-09-09T00:55:45;16.30;99.90
23237;DHT22;11787;52.018;8.570;2022-09-09T00:58:13;16.30;99.90
23237;DHT22;11787;52.018;8.570;2022-09-09T01:07:58;16.30;99.90
23237;DHT22;11787;52.018;8.570;2022-09-09T01:11:09;16.30;99.90
23237;DHT22;11787;52.018;8.570;2022-09-09T01:13:22;16.30;99.90
23237;DHT22;11787;52.018;8.570;2022-09-09T01:15:49;16.30;99.90
23237;DHT22;11787;52.018;8.570;2022-09-09T01:18:17;16.30;99.90
23237;DHT22;11787;52.018;8.570;2022-09-09T01:21:35;16.30;99.90
23237;DHT22;11787;52.018;8.570;2022-09-09T01:23:55;16.30;99.90
23237;DHT22;11787;52.018;8.570;2022-09-09T01:26:28;16.30;99.90
23237;DHT22;11787;52.018;8.570;2022-09-09T01:28:55;16.30;99.90
23237;DHT22;11787;52.018;8.570;2022-09-09T01:31:38;16.30;99.90
23237;DHT22;11787;52.018;8.570;2022-09-09T01:34:10;16.30;99.90
23237;DHT22;11787;52.018;8.570;2022-09-09T01:36:44;16.20;99.90
23237;DHT22;11787;52.018;8.570;2022-09-09T01:39:10;16.20;99.90
23237;DHT22;11787;52.018;8.570;2022-09-09T01:41:36;16.20;99.90
23237;DHT22;11787;52.018;8.570;2022-09-09T01:44:02;16.20;99.90
23237;DHT22;11787;52.018;8.570;2022-09-09T01:46:28;16.20;99.90
23237;DHT22;11787;52.018;8.570;2022-09-09T01:48:54;16.20;99.90
23237;DHT22;11787;52.018;8.570;2022-09-09T01:51:20;16.20;99.90
23237;DHT22;11787;52.018;8.570;2022-09-09T01:53:45;16.20;99.90
23237;DHT22;11787;52.018;8.570;2022-09-09T01:56:23;16.20;99.90
23237;DHT22;11787;52.018;8.570;2022-09-09T02:04:24;16.30;99.90
23237;DHT22;11787;52.018;8.570;2022-09-09T02:06:53;16.20;99.90
23237;DHT22;11787;52.018;8.570;2022-09-09T02:09:21;16.20;99.90
23237;DHT22;11787;52.018;8.570;2022-09-09T02:11:47;16.20;99.90
23237;DHT22;11787;52.018;8.570;2022-09-09T02:14:16;16.20;99.90
23237;DHT22;11787;52.018;8.570;2022-09-09T02:19:15;16.20;99.90
23237;DHT22;11787;52.018;8.570;2022-09-09T02:21:44;16.10;99.90
23237;DHT22;11787;52.018;8.570;2022-09-09T02:24:10;16.10;99.90
23237;DHT22;11787;52.018;8.570;2022-09-09T02:26:39;16.10;99.90
23237;DHT22;11787;52.018;8.570;2022-09-09T02:29:07;16.10;99.90
23237;DHT22;11787;52.018;8.570;2022-09-09T02:31:33;16.10;99.90
23237;DHT22;11787;52.018;8.570;2022-09-09T02:34:01;16.10;99.90
23237;DHT22;11787;52.018;8.570;2022-09-09T02:36:29;16.10;99.90
23237;DHT22;11787;52.018;8.570;2022-09-09T02:38:56;16.00;99.90
23237;DHT22;11787;52.018;8.570;2022-09-09T02:41:32;16.10;99.90
23237;DHT22;11787;52.018;8.570;2022-09-09T02:43:58;16.10;99.90
23237;DHT22;11787;52.018;8.570;2022-09-09T02:49:11;16.10;99.90
23237;DHT22;11787;52.018;8.570;2022-09-09T02:51:42;16.20;99.90
23237;DHT22;11787;52.018;8.570;2022-09-09T02:54:17;16.20;99.90
23237;DHT22;11787;52.018;8.570;2022-09-09T02:56:48;16.20;99.90
23237;DHT22;11787;52.018;8.570;2022-09-09T02:59:16;16.30;99.90
23237;DHT22;11787;52.018;8.570;2022-09-09T03:01:41;16.20;99.90
23237;DHT22;11787;52.018;8.570;2022-09-09T03:04:07;16.30;99.90
23237;DHT22;11787;52.018;8.570;2022-09-09T03:06:32;16.30;99.90
23237;DHT22;11787;52.018;8.570;2022-09-09T03:08:58;16.20;99.90
23237;DHT22;11787;52.018;8.570;2022-09-09T03:11:26;16.20;99.90
23237;DHT22;11787;52.018;8.570;2022-09-09T03:13:53;16.30;99.90
23237;DHT22;11787;52.018;8.570;2022-09-09T03:16:20;16.30;99.90
23237;DHT22;11787;52.018;8.570;2022-09-09T03:18:46;16.20;99.90
23237;DHT22;11787;52.018;8.570;2022-09-09T03:21:12;16.20;99.90
23237;DHT22;11787;52.018;8.570;2022-09-09T03:23:37;16.20;99.90
23237;DHT22;11787;52.018;8.570;2022-09-09T03:26:03;16.30;99.90
23237;DHT22;11787;52.018;8.570;2022-09-09T03:28:28;16.30;99.90
23237;DHT22;11787;52.018;8.570;2022-09-09T03:30:59;16.30;99.90
23237;DHT22;11787;52.018;8.570;2022-09-09T03:33:25;16.30;99.90
23237;DHT22;11787;52.018;8.570;2022-09-09T03:35:50;16.30;99.90
23237;DHT22;11787;52.018;8.570;2022-09-09T03:38:16;16.30;99.90
23237;DHT22;11787;52.018;8.570;2022-09-09T03:40:49;16.30;99.90
23237;DHT22;11787;52.018;8.570;2022-09-09T03:43:14;16.30;99.90
23237;DHT22;11787;52.018;8.570;2022-09-09T03:45:45;16.30;99.90
23237;DHT22;11787;52.018;8.570;2022-09-09T03:48:11;16.30;99.90
23237;DHT22;11787;52.018;8.570;2022-09-09T03:50:37;16.30;99.90
23237;DHT22;11787;52.018;8.570;2022-09-09T03:53:02;16.30;99.90
23237;DHT22;11787;52.018;8.570;2022-09-09T03:55:28;16.30;99.90
23237;DHT22;11787;52.018;8.570;2022-09-09T03:57:53;16.30;99.90
23237;DHT22;11787;52.018;8.570;2022-09-09T04:00:19;16.30;99.90
23237;DHT22;11787;52.018;8.570;2022-09-09T04:02:44;16.30;99.90
23237;DHT22;11787;52.018;8.570;2022-09-09T04:05:11;16.30;99.90
23237;DHT22;11787;52.018;8.570;2022-09-09T04:07:36;16.30;99.90
23237;DHT22;11787;52.018;8.570;2022-09-09T04:10:02;16.30;99.90
23237;DHT22;11787;52.018;8.570;2022-09-09T04:12:27;16.30;99.90
23237;DHT22;11787;52.018;8.570;2022-09-09T04:14:53;16.30;99.90
23237;DHT22;11787;52.018;8.570;2022-09-09T04:17:18;16.30;99.90
23237;DHT22;11787;52.018;8.570;2022-09-09T04:19:44;16.30;99.90
23237;DHT22;11787;52.018;8.570;2022-09-09T04:22:10;16.30;99.90
23237;DHT22;11787;52.018;8.570;2022-09-09T04:24:35;16.30;99.90
23237;DHT22;11787;52.018;8.570;2022-09-09T04:27:01;16.40;99.90
23237;DHT22;11787;52.018;8.570;2022-09-09T04:29:26;16.30;99.90
23237;DHT22;11787;52.018;8.570;2022-09-09T04:31:52;16.40;99.90
23237;DHT22;11787;52.018;8.570;2022-09-09T04:34:17;16.40;99.90
23237;DHT22;11787;52.018;8.570;2022-09-09T04:36:43;16.40;99.90
23237;DHT22;11787;52.018;8.570;2022-09-09T04:39:08;16.30;99.90
23237;DHT22;11787;52.018;8.570;2022-09-09T04:41:34;16.20;99.90
23237;DHT22;11787;52.018;8.570;2022-09-09T04:44:01;16.10;99.90
23237;DHT22;11787;52.018;8.570;2022-09-09T04:46:26;16.10;99.90
23237;DHT22;11787;52.018;8.570;2022-09-09T04:48:52;16.00;99.90
23237;DHT22;11787;52.018;8.570;2022-09-09T04:51:18;16.00;99.90
23237;DHT22;11787;52.018;8.570;2022-09-09T04:53:43;16.00;99.90
23237;DHT22;11787;52.018;8.570;2022-09-09T04:56:13;16.00;99.90
23237;DHT22;11787;52.018;8.570;2022-09-09T04:58:39;16.00;99.90
23237;DHT22;11787;52.018;8.570;2022-09-09T05:03:30;16.00;99.90
23237;DHT22;11787;52.018;8.570;2022-09-09T05:06:02;16.00;99.90
23237;DHT22;11787;52.018;8.570;2022-09-09T05:08:29;16.00;99.90
23237;DHT22;11787;52.018;8.570;2022-09-09T05:10:54;16.00;99.90
23237;DHT22;11787;52.018;8.570;2022-09-09T05:13:20;16.00;99.90
23237;DHT22;11787;52.018;8.570;2022-09-09T05:15:52;16.00;99.90
23237;DHT22;11787;52.018;8.570;2022-09-09T05:18:18;16.00;99.90
23237;DHT22;11787;52.018;8.570;2022-09-09T05:20:43;16.00;99.90
23237;DHT22;11787;52.018;8.570;2022-09-09T05:23:09;16.10;99.90
23237;DHT22;11787;52.018;8.570;2022-09-09T05:25:38;16.10;99.90
23237;DHT22;11787;52.018;8.570;2022-09-09T05:28:04;16.10;99.90
23237;DHT22;11787;52.018;8.570;2022-09-09T05:30:30;16.10;99.90
23237;DHT22;11787;52.018;8.570;2022-09-09T05:32:56;16.10;99.90
23237;DHT22;11787;52.018;8.570;2022-09-09T05:35:21;16.10;99.90
23237;DHT22;11787;52.018;8.570;2022-09-09T05:37:48;16.10;99.90
23237;DHT22;11787;52.018;8.570;2022-09-09T05:40:13;16.10;99.90
23237;DHT22;11787;52.018;8.570;2022-09-09T05:42:39;16.10;99.90
23237;DHT22;11787;52.018;8.570;2022-09-09T05:45:06;16.10;99.90
23237;DHT22;11787;52.018;8.570;2022-09-09T05:47:33;16.20;99.90
23237;DHT22;11787;52.018;8.570;2022-09-09T05:49:58;16.20;99.90
23237;DHT22;11787;52.018;8.570;2022-09-09T05:52:24;16.20;99.90
23237;DHT22;11787;52.018;8.570;2022-09-09T05:54:50;16.20;99.90
23237;DHT22;11787;52.018;8.570;2022-09-09T05:57:16;16.30;99.90
23237;DHT22;11787;52.018;8.570;2022-09-09T05:59:42;16.30;99.90
23237;DHT22;11787;52.018;8.570;2022-09-09T06:02:08;16.40;99.90
23237;DHT22;11787;52.018;8.570;2022-09-09T06:04:34;16.50;99.90
23237;DHT22;11787;52.018;8.570;2022-09-09T06:07:00;16.50;99.90
23237;DHT22;11787;52.018;8.570;2022-09-09T06:09:25;16.60;99.90
23237;DHT22;11787;52.018;8.570;2022-09-09T06:11:51;16.50;99.90
23237;DHT22;11787;52.018;8.570;2022-09-09T06:14:16;16.60;99.90
23237;DHT22;11787;52.018;8.570;2022-09-09T06:16:43;16.60;99.90
23237;DHT22;11787;52.018;8.570;2022-09-09T06:19:09;16.70;99.90
23237;DHT22;11787;52.018;8.570;2022-09-09T06:21:35;16.70;99.90
23237;DHT22;11787;52.018;8.570;2022-09-09T06:24:04;16.70;99.90
23237;DHT22;11787;52.018;8.570;2022-09-09T06:26:31;16.70;99.90
23237;DHT22;11787;52.018;8.570;2022-09-09T06:28:57;16.80;99.90
23237;DHT22;11787;52.018;8.570;2022-09-09T06:31:24;16.90;99.90
23237;DHT22;11787;52.018;8.570;2022-09-09T06:33:50;16.90;99.90
23237;DHT22;11787;52.018;8.570;2022-09-09T06:36:17;17.00;99.90
23237;DHT22;11787;52.018;8.570;2022-09-09T06:38:43;17.20;99.90
23237;DHT22;11787;52.018;8.570;2022-09-09T06:41:09;17.20;99.90
23237;DHT22;11787;52.018;8.570;2022-09-09T06:43:35;17.30;99.90
23237;DHT22;11787;52.018;8.570;2022-09-09T06:46:08;17.30;99.90
23237;DHT22;11787;52.018;8.570;2022-09-09T06:48:35;17.30;99.90
23237;DHT22;11787;52.018;8.570;2022-09-09T06:51:06;17.30;99.90
23237;DHT22;11787;52.018;8.570;2022-09-09T06:53:33;17.50;99.90
23237;DHT22;11787;52.018;8.570;2022-09-09T06:56:22;17.50;99.90
23237;DHT22;11787;52.018;8.570;2022-09-09T06:58:49;17.60;99.90
23237;DHT22;11787;52.018;8.570;2022-09-09T07:01:17;17.60;99.90
23237;DHT22;11787;52.018;8.570;2022-09-09T07:03:46;17.60;99.90
23237;DHT22;11787;52.018;8.570;2022-09-09T07:08:54;17.60;99.90
23237;DHT22;11787;52.018;8.570;2022-09-09T07:11:20;17.50;99.90
23237;DHT22;11787;52.018;8.570;2022-09-09T07:13:47;17.60;99.90
23237;DHT22;11787;52.018;8.570;2022-09-09T07:16:18;17.50;99.90
23237;DHT22;11787;52.018;8.570;2022-09-09T07:18:44;17.50;99.90
23237;DHT22;11787;52.018;8.570;2022-09-09T07:21:11;17.50;99.90
23237;DHT22;11787;52.018;8.570;2022-09-09T07:23:40;17.40;99.90
23237;DHT22;11787;52.018;8.570;2022-09-09T07:26:17;17.50;99.90
23237;DHT22;11787;52.018;8.570;2022-09-09T07:28:46;17.60;99.90
23237;DHT22;11787;52.018;8.570;2022-09-09T07:31:21;17.60;99.90
23237;DHT22;11787;52.018;8.570;2022-09-09T07:33:47;17.50;99.90
23237;DHT22;11787;52.018;8.570;2022-09-09T07:36:16;17.60;99.90
23237;DHT22;11787;52.018;8.570;2022-09-09T07:38:47;17.60;99.90
23237;DHT22;11787;52.018;8.570;2022-09-09T07:41:22;17.60;99.90
23237;DHT22;11787;52.018;8.570;2022-09-09T07:43:49;17.70;99.90
23237;DHT22;11787;52.018;8.570;2022-09-09T07:46:17;17.70;99.90
23237;DHT22;11787;52.018;8.570;2022-09-09T07:48:49;17.70;99.90
23237;DHT22;11787;52.018;8.570;2022-09-09T07:51:23;17.80;99.90
23237;DHT22;11787;52.018;8.570;2022-09-09T07:53:53;17.90;99.90
23237;DHT22;11787;52.018;8.570;2022-09-09T07:56:18;17.90;99.90
23237;DHT22;11787;52.018;8.570;2022-09-09T07:58:46;17.90;99.90
23237;DHT22;11787;52.018;8.570;2022-09-09T08:01:20;18.00;99.90
23237;DHT22;11787;52.018;8.570;2022-09-09T08:03:51;18.00;99.90
23237;DHT22;11787;52.018;8.570;2022-09-09T08:06:17;18.10;99.90
23237;DHT22;11787;52.018;8.570;2022-09-09T08:08:43;18.20;99.90
23237;DHT22;11787;52.018;8.570;2022-09-09T08:11:13;18.20;99.90
23237;DHT22;11787;52.018;8.570;2022-09-09T08:13:43;18.30;99.90
23237;DHT22;11787;52.018;8.570;2022-09-09T08:16:15;18.30;99.90
23237;DHT22;11787;52.018;8.570;2022-09-09T08:18:41;18.30;99.90
23237;DHT22;11787;52.018;8.570;2022-09-09T08:21:14;18.40;99.90
23237;DHT22;11787;52.018;8.570;2022-09-09T08:23:41;18.50;99.90
23237;DHT22;11787;52.018;8.570;2022-09-09T08:26:11;18.60;99.90
23237;DHT22;11787;52.018;8.570;2022-09-09T08:28:37;18.60;99.90
23237;DHT22;11787;52.018;8.570;2022-09-09T08:31:14;18.60;99.90
23237;DHT22;11787;52.018;8.570;2022-09-09T08:33:42;18.70;99.90
23237;DHT22;11787;52.018;8.570;2022-09-09T08:36:19;18.80;99.90
23237;DHT22;11787;52.018;8.570;2022-09-09T08:38:48;18.90;99.90
23237;DHT22;11787;52.018;8.570;2022-09-09T08:41:34;19.00;99.90
23237;DHT22;11787;52.018;8.570;2022-09-09T08:44:04;19.10;99.90
23237;DHT22;11787;52.018;8.570;2022-09-09T08:46:47;19.30;99.90
23237;DHT22;11787;52.018;8.570;2022-09-09T08:52:38;19.30;99.90
23237;DHT22;11787;52.018;8.570;2022-09-09T08:58:14;19.30;99.90
23237;DHT22;11787;52.018;8.570;2022-09-09T09:00:52;19.30;99.90
23237;DHT22;11787;52.018;8.570;2022-09-09T09:04:00;19.20;99.90
23237;DHT22;11787;52.018;8.570;2022-09-09T09:09:21;19.10;99.90
23237;DHT22;11787;52.018;8.570;2022-09-09T09:11:59;19.20;99.90
23237;DHT22;11787;52.018;8.570;2022-09-09T09:14:28;19.20;99.90
23237;DHT22;11787;52.018;8.570;2022-09-09T09:17:00;19.20;99.90
23237;DHT22;11787;52.018;8.570;2022-09-09T09:19:28;19.20;99.90
23237;DHT22;11787;52.018;8.570;2022-09-09T09:27:13;19.10;99.90
23237;DHT22;11787;52.018;8.570;2022-09-09T09:29:39;19.10;99.90
23237;DHT22;11787;52.018;8.570;2022-09-09T09:32:05;19.20;99.90
23237;DHT22;11787;52.018;8.570;2022-09-09T09:34:33;19.40;99.90
23237;DHT22;11787;52.018;8.570;2022-09-09T09:36:59;19.50;99.90
23237;DHT22;11787;52.018;8.570;2022-09-09T09:39:28;19.50;99.90
23237;DHT22;11787;52.018;8.570;2022-09-09T09:41:54;19.60;99.90
23237;DHT22;11787;52.018;8.570;2022-09-09T09:46:45;19.70;99.90
23237;DHT22;11787;52.018;8.570;2022-09-09T09:49:10;19.70;99.90
23237;DHT22;11787;52.018;8.570;2022-09-09T09:51:36;19.60;99.90
23237;DHT22;11787;52.018;8.570;2022-09-09T09:56:39;19.30;99.90
23237;DHT22;11787;52.018;8.570;2022-09-09T09:59:05;19.30;99.90
23237;DHT22;11787;52.018;8.570;2022-09-09T10:01:32;19.20;99.90
23237;DHT22;11787;52.018;8.570;2022-09-09T10:04:22;19.20;99.90
23237;DHT22;11787;52.018;8.570;2022-09-09T10:06:49;19.20;99.90
23237;DHT22;11787;52.018;8.570;2022-09-09T10:09:22;19.30;99.90
23237;DHT22;11787;52.018;8.570;2022-09-09T10:11:57;19.60;99.90
23237;DHT22;11787;52.018;8.570;2022-09-09T10:14:25;20.20;99.90
23237;DHT22;11787;52.018;8.570;2022-09-09T10:16:57;20.60;99.90
23237;DHT22;11787;52.018;8.570;2022-09-09T10:22:11;20.90;99.90
23237;DHT22;11787;52.018;8.570;2022-09-09T10:33:01;21.60;99.90
23237;DHT22;11787;52.018;8.570;2022-09-09T10:35:43;21.70;99.90
23237;DHT22;11787;52.018;8.570;2022-09-09T10:43:19;21.60;99.90
23237;DHT22;11787;52.018;8.570;2022-09-09T10:46:00;21.60;99.90
23237;DHT22;11787;52.018;8.570;2022-09-09T10:51:30;22.20;99.90
23237;DHT22;11787;52.018;8.570;2022-09-09T10:56:31;22.40;99.90
23237;DHT22;11787;52.018;8.570;2022-09-09T10:59:00;22.20;99.90
23237;DHT22;11787;52.018;8.570;2022-09-09T11:04:26;22.50;99.90
23237;DHT22;11787;52.018;8.570;2022-09-09T11:06:57;22.60;99.90
23237;DHT22;11787;52.018;8.570;2022-09-09T11:27:25;23.20;99.90
23237;DHT22;11787;52.018;8.570;2022-09-09T11:30:20;22.90;99.90
23237;DHT22;11787;52.018;8.570;2022-09-09T11:33:20;23.00;99.90
23237;DHT22;11787;52.018;8.570;2022-09-09T11:36:12;23.00;99.90
23237;DHT22;11787;52.018;8.570;2022-09-09T11:38:46;22.80;99.90
23237;DHT22;11787;52.018;8.570;2022-09-09T11:41:16;22.60;99.90
23237;DHT22;11787;52.018;8.570;2022-09-09T11:43:47;22.70;99.90
23237;DHT22;11787;52.018;8.570;2022-09-09T11:46:16;23.00;99.90
23237;DHT22;11787;52.018;8.570;2022-09-09T11:48:45;22.90;99.90
23237;DHT22;11787;52.018;8.570;2022-09-09T11:53:53;22.50;99.90
23237;DHT22;11787;52.018;8.570;2022-09-09T11:56:30;22.20;99.90
23237;DHT22;11787;52.018;8.570;2022-09-09T11:59:05;22.00;99.90
23237;DHT22;11787;52.018;8.570;2022-09-09T12:01:37;21.80;99.90
23237;DHT22;11787;52.018;8.570;2022-09-09T12:04:11;21.70;99.90
23237;DHT22;11787;52.018;8.570;2022-09-09T12:06:59;21.50;99.90
23237;DHT22;11787;52.018;8.570;2022-09-09T12:14:43;21.80;99.90
23237;DHT22;11787;52.018;8.570;2022-09-09T12:17:30;22.20;99.90
23237;DHT22;11787;52.018;8.570;2022-09-09T12:20:37;22.70;99.90
23237;DHT22;11787;52.018;8.570;2022-09-09T12:33:50;23.60;99.90
23237;DHT22;11787;52.018;8.570;2022-09-09T12:36:19;23.60;99.90
23237;DHT22;11787;52.018;8.570;2022-09-09T12:38:46;23.60;99.90
23237;DHT22;11787;52.018;8.570;2022-09-09T12:43:45;23.80;99.90
23237;DHT22;11787;52.018;8.570;2022-09-09T12:46:23;23.70;99.90
23237;DHT22;11787;52.018;8.570;2022-09-09T12:48:52;23.90;99.90
23237;DHT22;11787;52.018;8.570;2022-09-09T12:51:24;23.80;99.90
23237;DHT22;11787;52.018;8.570;2022-09-09T12:53:51;23.50;99.90
23237;DHT22;11787;52.018;8.570;2022-09-09T12:56:28;23.60;99.90
23237;DHT22;11787;52.018;8.570;2022-09-09T12:58:56;23.50;99.90
23237;DHT22;11787;52.018;8.570;2022-09-09T13:01:23;23.70;99.90
23237;DHT22;11787;52.018;8.570;2022-09-09T13:03:49;23.90;99.90
23237;DHT22;11787;52.018;8.570;2022-09-09T13:06:29;23.80;99.90
23237;DHT22;11787;52.018;8.570;2022-09-09T13:08:57;23.80;99.90
23237;DHT22;11787;52.018;8.570;2022-09-09T13:11:41;23.80;99.90
23237;DHT22;11787;52.018;8.570;2022-09-09T13:14:16;23.60;99.90
23237;DHT22;11787;52.018;8.570;2022-09-09T13:16:57;23.60;99.90
23237;DHT22;11787;52.018;8.570;2022-09-09T13:19:23;23.40;99.90
23237;DHT22;11787;52.018;8.570;2022-09-09T13:21:53;23.30;99.90
23237;DHT22;11787;52.018;8.570;2022-09-09T13:24:23;23.00;99.90
23237;DHT22;11787;52.018;8.570;2022-09-09T13:27:04;22.90;99.90
23237;DHT22;11787;52.018;8.570;2022-09-09T13:29:30;22.70;99.90
23237;DHT22;11787;52.018;8.570;2022-09-09T13:32:04;22.90;99.90
23237;DHT22;11787;52.018;8.570;2022-09-09T13:34:31;22.90;99.90
23237;DHT22;11787;52.018;8.570;2022-09-09T13:36:59;22.90;99.90
23237;DHT22;11787;52.018;8.570;2022-09-09T13:39:27;22.80;99.90
23237;DHT22;11787;52.018;8.570;2022-09-09T13:41:53;22.80;99.90
23237;DHT22;11787;52.018;8.570;2022-09-09T13:44:25;22.80;99.90
23237;DHT22;11787;52.018;8.570;2022-09-09T13:49:37;23.40;99.90
23237;DHT22;11787;52.018;8.570;2022-09-09T13:52:03;23.40;99.90
23237;DHT22;11787;52.018;8.570;2022-09-09T13:54:30;23.30;99.90
23237;DHT22;11787;52.018;8.570;2022-09-09T13:56:56;23.40;99.90
23237;DHT22;11787;52.018;8.570;2022-09-09T13:59:21;23.50;99.90
23237;DHT22;11787;52.018;8.570;2022-09-09T14:01:47;23.40;99.90
23237;DHT22;11787;52.018;8.570;2022-09-09T14:04:12;23.50;99.90
23237;DHT22;11787;52.018;8.570;2022-09-09T14:06:38;23.50;99.90
23237;DHT22;11787;52.018;8.570;2022-09-09T14:09:05;23.50;99.90
23237;DHT22;11787;52.018;8.570;2022-09-09T14:11:30;23.40;99.90
23237;DHT22;11787;52.018;8.570;2022-09-09T14:13:56;23.40;99.90
23237;DHT22;11787;52.018;8.570;2022-09-09T14:16:21;23.50;99.90
23237;DHT22;11787;52.018;8.570;2022-09-09T14:18:47;23.50;99.90
23237;DHT22;11787;52.018;8.570;2022-09-09T14:21:13;23.40;99.90
23237;DHT22;11787;52.018;8.570;2022-09-09T14:23:39;23.20;99.90
23237;DHT22;11787;52.018;8.570;2022-09-09T14:26:05;23.00;99.90
23237;DHT22;11787;52.018;8.570;2022-09-09T14:28:31;22.90;99.90
23237;DHT22;11787;52.018;8.570;2022-09-09T14:30:59;22.70;99.90
23237;DHT22;11787;52.018;8.570;2022-09-09T14:33:24;22.60;99.90
23237;DHT22;11787;52.018;8.570;2022-09-09T14:35:55;22.60;99.90
23237;DHT22;11787;52.018;8.570;2022-09-09T14:38:20;22.70;99.90
23237;DHT22;11787;52.018;8.570;2022-09-09T14:40:46;22.60;99.90
23237;DHT22;11787;52.018;8.570;2022-09-09T14:43:12;22.60;99.90
23237;DHT22;11787;52.018;8.570;2022-09-09T14:45:37;22.60;99.90
23237;DHT22;11787;52.018;8.570;2022-09-09T14:48:03;22.60;99.90
23237;DHT22;11787;52.018;8.570;2022-09-09T14:50:28;22.60;99.90
23237;DHT22;11787;52.018;8.570;2022-09-09T14:52:54;22.50;99.90
23237;DHT22;11787;52.018;8.570;2022-09-09T14:55:19;22.40;99.90
23237;DHT22;11787;52.018;8.570;2022-09-09T14:57:46;22.40;99.90
23237;DHT22;11787;52.018;8.570;2022-09-09T15:00:12;22.40;99.90
23237;DHT22;11787;52.018;8.570;2022-09-09T15:02:38;22.40;99.90
23237;DHT22;11787;52.018;8.570;2022-09-09T15:05:04;22.30;99.90
23237;DHT22;11787;52.018;8.570;2022-09-09T15:07:30;22.30;99.90
23237;DHT22;11787;52.018;8.570;2022-09-09T15:09:57;22.30;99.90
23237;DHT22;11787;52.018;8.570;2022-09-09T15:12:23;22.10;99.90
23237;DHT22;11787;52.018;8.570;2022-09-09T15:14:49;22.00;99.90
23237;DHT22;11787;52.018;8.570;2022-09-09T15:17:15;21.80;99.90
23237;DHT22;11787;52.018;8.570;2022-09-09T15:19:41;21.80;99.90
23237;DHT22;11787;52.018;8.570;2022-09-09T15:22:07;21.70;99.90
23237;DHT22;11787;52.018;8.570;2022-09-09T15:24:33;21.80;99.90
23237;DHT22;11787;52.018;8.570;2022-09-09T15:26:59;21.80;99.90
23237;DHT22;11787;52.018;8.570;2022-09-09T15:29:25;21.70;99.90
23237;DHT22;11787;52.018;8.570;2022-09-09T15:31:50;21.70;99.90
23237;DHT22;11787;52.018;8.570;2022-09-09T15:34:16;21.70;99.90
23237;DHT22;11787;52.018;8.570;2022-09-09T15:36:43;21.80;99.90
23237;DHT22;11787;52.018;8.570;2022-09-09T15:39:12;21.70;99.90
23237;DHT22;11787;52.018;8.570;2022-09-09T15:41:41;21.70;99.90
23237;DHT22;11787;52.018;8.570;2022-09-09T15:44:07;21.70;99.90
23237;DHT22;11787;52.018;8.570;2022-09-09T15:46:33;21.70;99.90
23237;DHT22;11787;52.018;8.570;2022-09-09T15:51:34;21.70;99.90
23237;DHT22;11787;52.018;8.570;2022-09-09T15:54:00;21.70;99.90
23237;DHT22;11787;52.018;8.570;2022-09-09T15:56:26;21.70;99.90
23237;DHT22;11787;52.018;8.570;2022-09-09T15:58:52;21.70;99.90
23237;DHT22;11787;52.018;8.570;2022-09-09T16:01:18;21.60;99.90
23237;DHT22;11787;52.018;8.570;2022-09-09T16:03:44;21.50;99.90
23237;DHT22;11787;52.018;8.570;2022-09-09T16:06:15;21.30;99.90
23237;DHT22;11787;52.018;8.570;2022-09-09T16:08:42;21.30;99.90
23237;DHT22;11787;52.018;8.570;2022-09-09T16:11:09;21.20;99.90
23237;DHT22;11787;52.018;8.570;2022-09-09T16:13:35;21.20;99.90
23237;DHT22;11787;52.018;8.570;2022-09-09T16:16:01;21.20;99.90
23237;DHT22;11787;52.018;8.570;2022-09-09T16:18:32;21.10;99.90
23237;DHT22;11787;52.018;8.570;2022-09-09T16:20:58;21.00;99.90
23237;DHT22;11787;52.018;8.570;2022-09-09T16:23:23;21.00;99.90
23237;DHT22;11787;52.018;8.570;2022-09-09T16:25:54;20.90;99.90
23237;DHT22;11787;52.018;8.570;2022-09-09T16:28:20;20.90;99.90
23237;DHT22;11787;52.018;8.570;2022-09-09T16:30:46;21.00;99.90
23237;DHT22;11787;52.018;8.570;2022-09-09T16:33:12;21.00;99.90
23237;DHT22;11787;52.018;8.570;2022-09-09T16:35:41;21.10;99.90
23237;DHT22;11787;52.018;8.570;2022-09-09T16:38:06;21.10;99.90
23237;DHT22;11787;52.018;8.570;2022-09-09T16:40:36;21.10;99.90
23237;DHT22;11787;52.018;8.570;2022-09-09T16:43:03;21.10;99.90
23237;DHT22;11787;52.018;8.570;2022-09-09T16:45:29;21.00;99.90
23237;DHT22;11787;52.018;8.570;2022-09-09T16:47:55;20.90;99.90
23237;DHT22;11787;52.018;8.570;2022-09-09T16:50:21;20.80;99.90
23237;DHT22;11787;52.018;8.570;2022-09-09T16:52:46;20.70;99.90
23237;DHT22;11787;52.018;8.570;2022-09-09T16:55:12;20.70;99.90
23237;DHT22;11787;52.018;8.570;2022-09-09T16:57:38;20.60;99.90
23237;DHT22;11787;52.018;8.570;2022-09-09T17:00:04;20.50;99.90
23237;DHT22;11787;52.018;8.570;2022-09-09T17:02:32;20.40;99.90
23237;DHT22;11787;52.018;8.570;2022-09-09T17:04:57;20.30;99.90
23237;DHT22;11787;52.018;8.570;2022-09-09T17:07:23;20.20;99.90
23237;DHT22;11787;52.018;8.570;2022-09-09T17:09:48;20.00;99.90
23237;DHT22;11787;52.018;8.570;2022-09-09T17:12:14;20.00;99.90
23237;DHT22;11787;52.018;8.570;2022-09-09T17:14:41;19.80;99.90
23237;DHT22;11787;52.018;8.570;2022-09-09T17:17:07;19.80;99.90
23237;DHT22;11787;52.018;8.570;2022-09-09T17:19:33;19.70;99.90
23237;DHT22;11787;52.018;8.570;2022-09-09T17:21:58;19.50;99.90
23237;DHT22;11787;52.018;8.570;2022-09-09T17:24:24;19.50;99.90
23237;DHT22;11787;52.018;8.570;2022-09-09T17:26:51;19.40;99.90
23237;DHT22;11787;52.018;8.570;2022-09-09T17:29:17;19.30;99.90
23237;DHT22;11787;52.018;8.570;2022-09-09T17:31:43;19.20;99.90
23237;DHT22;11787;52.018;8.570;2022-09-09T17:34:08;19.20;99.90
23237;DHT22;11787;52.018;8.570;2022-09-09T17:36:34;19.20;99.90
23237;DHT22;11787;52.018;8.570;2022-09-09T17:39:00;19.10;99.90
23237;DHT22;11787;52.018;8.570;2022-09-09T17:41:30;19.20;99.90
23237;DHT22;11787;52.018;8.570;2022-09-09T17:43:55;19.10;99.90
23237;DHT22;11787;52.018;8.570;2022-09-09T17:46:26;19.10;99.90
23237;DHT22;11787;52.018;8.570;2022-09-09T17:48:54;19.10;99.90